Aidablu — IBWX — position and weather

sailwx.info

Track history (hours):
 
Tides and Currents Weather Stations Pressure Air Temp Water Temp Dewpoint Dewpoint Depression Visibility Wind Speed Wind Dir Waves Ship Positions

Aidablu

Last reported at 2015-May-21 22:13 UTC. Time now 2015-May-23 05:52 UTC.
Position N 43°10' E 009°31'.

Length 252 m; draft 7.3 m.

Type: Ship. MMSI: 247282500.

Date/timePositionNaut miles runAvg speedWind from/ knotsBaromVisibWave heightAir tempDewpointWater temp
2015-May-21 22:13N 43°10' E 009°31'5 7.8
2015-May-21 21:33N 43°12' E 009°37'8 7.6
2015-May-21 20:33N 43°16' E 009°47'8 7.7
2015-May-21 19:33N 43°19' E 009°57'8 8.3
2015-May-21 18:33N 43°24' E 010°05'9 8.7
2015-May-21 17:33N 43°31' E 010°13'4 4.0
2015-May-21 16:33N 43°33' E 010°18'0 0.0
2015-May-21 15:32N 43°33' E 010°18'0 0.0
2015-May-21 14:32N 43°33' E 010°18'0 0.0
2015-May-21 13:31N 43°33' E 010°18'0 0.0
2015-May-21 12:31N 43°33' E 010°18'0 0.0
2015-May-21 11:31N 43°33' E 010°18'0 0.0
2015-May-21 10:33N 43°33' E 010°18'0 0.0
2015-May-21 09:33N 43°33' E 010°18'0 0.0
2015-May-21 08:32N 43°33' E 010°18'0 0.0
2015-May-21 07:32N 43°33' E 010°18'0 0.0
2015-May-21 06:28N 43°33' E 010°18'0 0.0
2015-May-21 05:33N 43°33' E 010°18'4 4.2
2015-May-21 04:33N 43°30' E 010°14'9 9.0
2015-May-21 03:33N 43°21' E 010°11'1414.4
2015-May-21 02:33N 43°07' E 010°07'3113.1
2015-May-21 00:13N 42°37' E 010°14'89 4.1
2015-May-20 02:33N 41°44' E 011°50'1616.1
2015-May-20 01:33N 41°33' E 012°05'1615.6
2015-May-20 00:33N 41°21' E 012°20'1715.0
2015-May-19 23:25N 41°12' E 012°39'3414.9
2015-May-19 21:07N 40°56' E 013°19'814.8
2015-May-19 20:33N 40°53' E 013°29'1414.5
2015-May-19 19:34N 40°43' E 013°43'1414.0
2015-May-19 18:33N 40°39' E 014°01'1414.2
2015-May-19 17:34N 40°48' E 014°15'3 2.5
2015-May-19 16:29N 40°50' E 014°15'0 0.0
2015-May-19 15:32N 40°50' E 014°15'0 0.0
2015-May-19 05:33N 40°50' E 014°16'6 5.6
2015-May-19 04:33N 40°45' E 014°15'1413.8
2015-May-19 03:33N 40°32' E 014°07'1817.9
2015-May-19 02:33N 40°15' E 014°02'1716.7
2015-May-19 01:33N 39°58' E 013°58'1010.4
2015-May-19 00:33N 39°48' E 013°55'1414.4
2015-May-18 23:33N 39°34' E 013°51'1515.0
2015-May-18 22:33N 39°20' E 013°46'1514.9
2015-May-18 21:34N 39°05' E 013°42'1515.1
2015-May-18 20:34N 38°51' E 013°38'1515.1
2015-May-18 19:33N 38°36' E 013°34'1515.2
2015-May-18 18:33N 38°21' E 013°29'1414.0
2015-May-18 17:33N 38°08' E 013°24'1 1.4
2015-May-18 16:31N 38°08' E 013°22'0 0.0
2015-May-18 15:31N 38°08' E 013°22'0 0.0
2015-May-18 14:33N 38°08' E 013°22'0 0.0
2015-May-18 13:33N 38°08' E 013°22'0 0.0
2015-May-18 12:32N 38°08' E 013°22'0 0.0
2015-May-18 11:32N 38°08' E 013°22'0 0.0
2015-May-18 10:31N 38°08' E 013°22'0 0.0
2015-May-18 09:31N 38°08' E 013°22'0 0.0
2015-May-18 08:31N 38°08' E 013°22'0 0.1
2015-May-18 07:33N 38°08' E 013°22'6 5.7
2015-May-18 06:33N 38°13' E 013°23'7 7.4
2015-May-18 05:33N 38°20' E 013°18'1313.6
2015-May-18 04:34N 38°28' E 013°05'1514.9
2015-May-18 03:33N 38°38' E 012°50'20615.6
2015-May-17 14:24N 40°55' E 009°31'0 0.0
2015-May-17 13:33N 40°55' E 009°31'0 0.0
2015-May-17 12:29N 40°55' E 009°31'0 0.0
2015-May-17 11:20N 40°55' E 009°31'0 0.0
2015-May-17 10:31N 40°55' E 009°31'0 0.0
2015-May-17 09:25N 40°55' E 009°31'0 0.0
2015-May-17 08:34N 40°55' E 009°31'0 0.0
2015-May-17 07:09N 40°55' E 009°31'0 0.0
2015-May-17 06:30N 40°55' E 009°31'0 0.0
2015-May-17 05:26N 40°55' E 009°31'0 0.0
2015-May-17 04:23N 40°55' E 009°31'2 2.6
2015-May-17 03:33N 40°55' E 009°34'328 7.6
2015-May-15 08:33N 39°33' E 002°38'0 0.0
2015-May-15 07:33N 39°33' E 002°38'0 0.0
2015-May-15 06:32N 39°33' E 002°38'0 0.0
2015-May-15 05:32N 39°33' E 002°38'0 0.0
2015-May-15 03:31N 39°33' E 002°38'0 0.0
2015-May-15 02:31N 39°33' E 002°38'0 0.0
2015-May-15 01:33N 39°33' E 002°38'0 0.0
2015-May-15 00:33N 39°33' E 002°38'0 0.0
2015-May-14 23:32N 39°33' E 002°38'0 0.0
2015-May-14 22:32N 39°33' E 002°38'0 0.0
2015-May-14 21:31N 39°33' E 002°38'1 1.2
2015-May-14 20:33N 39°32' E 002°39'7 7.4
2015-May-14 19:33N 39°25' E 002°42'7 7.2
2015-May-14 18:33N 39°19' E 002°47'1313.1
2015-May-14 17:33N 39°14' E 003°03'1414.0
2015-May-14 16:34N 39°14' E 003°21'2013.5
2015-May-14 15:04N 39°19' E 003°46'1414.2
2015-May-14 14:07N 39°25' E 004°01'814.0
2015-May-14 13:33N 39°29' E 004°10'26413.6
2015-May-13 18:05N 41°22' E 009°24'1113.0
2015-May-13 17:13N 41°16' E 009°37'78 2.1
2015-May-12 03:27N 42°13' E 008°25'15 7.9
2015-May-12 01:33N 42°28' E 008°25'2710.9
2015-May-11 23:04N 42°48' E 008°49'713.8
2015-May-11 22:33N 42°53' E 008°56'  
Track history (hours):
 
Tides and Currents Weather Stations Pressure Air Temp Water Temp Dewpoint Dewpoint Depression Visibility Wind Speed Wind Dir Waves Ship Positions

Aidablu

Last reported at 2015-May-21 22:13 UTC. Time now 2015-May-23 05:52 UTC.
Position N 43°10' E 009°31'.

Length 252 m; draft 7.3 m.

Type: Ship. MMSI: 247282500.

Date/timePositionNaut miles runAvg speedWind from/ knotsBaromVisibWave heightAir tempDewpointWater temp
2015-May-21 22:13N 43°10' E 009°31'5 7.8
2015-May-21 21:33N 43°12' E 009°37'8 7.6
2015-May-21 20:33N 43°16' E 009°47'8 7.7
2015-May-21 19:33N 43°19' E 009°57'8 8.3
2015-May-21 18:33N 43°24' E 010°05'9 8.7
2015-May-21 17:33N 43°31' E 010°13'4 4.0
2015-May-21 16:33N 43°33' E 010°18'0 0.0
2015-May-21 15:32N 43°33' E 010°18'0 0.0
2015-May-21 14:32N 43°33' E 010°18'0 0.0
2015-May-21 13:31N 43°33' E 010°18'0 0.0
2015-May-21 12:31N 43°33' E 010°18'0 0.0
2015-May-21 11:31N 43°33' E 010°18'0 0.0
2015-May-21 10:33N 43°33' E 010°18'0 0.0
2015-May-21 09:33N 43°33' E 010°18'0 0.0
2015-May-21 08:32N 43°33' E 010°18'0 0.0
2015-May-21 07:32N 43°33' E 010°18'0 0.0
2015-May-21 06:28N 43°33' E 010°18'0 0.0
2015-May-21 05:33N 43°33' E 010°18'4 4.2
2015-May-21 04:33N 43°30' E 010°14'9 9.0
2015-May-21 03:33N 43°21' E 010°11'1414.4
2015-May-21 02:33N 43°07' E 010°07'3113.1
2015-May-21 00:13N 42°37' E 010°14'89 4.1
2015-May-20 02:33N 41°44' E 011°50'1616.1
2015-May-20 01:33N 41°33' E 012°05'1615.6
2015-May-20 00:33N 41°21' E 012°20'1715.0
2015-May-19 23:25N 41°12' E 012°39'3414.9
2015-May-19 21:07N 40°56' E 013°19'814.8
2015-May-19 20:33N 40°53' E 013°29'1414.5
2015-May-19 19:34N 40°43' E 013°43'1414.0
2015-May-19 18:33N 40°39' E 014°01'1414.2
2015-May-19 17:34N 40°48' E 014°15'3 2.5
2015-May-19 16:29N 40°50' E 014°15'0 0.0
2015-May-19 15:32N 40°50' E 014°15'0 0.0
2015-May-19 05:33N 40°50' E 014°16'6 5.6
2015-May-19 04:33N 40°45' E 014°15'1413.8
2015-May-19 03:33N 40°32' E 014°07'1817.9
2015-May-19 02:33N 40°15' E 014°02'1716.7
2015-May-19 01:33N 39°58' E 013°58'1010.4
2015-May-19 00:33N 39°48' E 013°55'1414.4
2015-May-18 23:33N 39°34' E 013°51'1515.0
2015-May-18 22:33N 39°20' E 013°46'1514.9
2015-May-18 21:34N 39°05' E 013°42'1515.1
2015-May-18 20:34N 38°51' E 013°38'1515.1
2015-May-18 19:33N 38°36' E 013°34'1515.2
2015-May-18 18:33N 38°21' E 013°29'1414.0
2015-May-18 17:33N 38°08' E 013°24'1 1.4
2015-May-18 16:31N 38°08' E 013°22'0 0.0
2015-May-18 15:31N 38°08' E 013°22'0 0.0
2015-May-18 14:33N 38°08' E 013°22'0 0.0
2015-May-18 13:33N 38°08' E 013°22'0 0.0
2015-May-18 12:32N 38°08' E 013°22'0 0.0
2015-May-18 11:32N 38°08' E 013°22'0 0.0
2015-May-18 10:31N 38°08' E 013°22'0 0.0
2015-May-18 09:31N 38°08' E 013°22'0 0.0
2015-May-18 08:31N 38°08' E 013°22'0 0.1
2015-May-18 07:33N 38°08' E 013°22'6 5.7
2015-May-18 06:33N 38°13' E 013°23'7 7.4
2015-May-18 05:33N 38°20' E 013°18'1313.6
2015-May-18 04:34N 38°28' E 013°05'1514.9
2015-May-18 03:33N 38°38' E 012°50'20615.6
2015-May-17 14:24N 40°55' E 009°31'0 0.0
2015-May-17 13:33N 40°55' E 009°31'0 0.0
2015-May-17 12:29N 40°55' E 009°31'0 0.0
2015-May-17 11:20N 40°55' E 009°31'0 0.0
2015-May-17 10:31N 40°55' E 009°31'0 0.0
2015-May-17 09:25N 40°55' E 009°31'0 0.0
2015-May-17 08:34N 40°55' E 009°31'0 0.0
2015-May-17 07:09N 40°55' E 009°31'0 0.0
2015-May-17 06:30N 40°55' E 009°31'0 0.0
2015-May-17 05:26N 40°55' E 009°31'0 0.0
2015-May-17 04:23N 40°55' E 009°31'2 2.6
2015-May-17 03:33N 40°55' E 009°34'328 7.6
2015-May-15 08:33N 39°33' E 002°38'0 0.0
2015-May-15 07:33N 39°33' E 002°38'0 0.0
2015-May-15 06:32N 39°33' E 002°38'0 0.0
2015-May-15 05:32N 39°33' E 002°38'0 0.0
2015-May-15 03:31N 39°33' E 002°38'0 0.0
2015-May-15 02:31N 39°33' E 002°38'0 0.0
2015-May-15 01:33N 39°33' E 002°38'0 0.0
2015-May-15 00:33N 39°33' E 002°38'0 0.0
2015-May-14 23:32N 39°33' E 002°38'0 0.0
2015-May-14 22:32N 39°33' E 002°38'0 0.0
2015-May-14 21:31N 39°33' E 002°38'1 1.2
2015-May-14 20:33N 39°32' E 002°39'7 7.4
2015-May-14 19:33N 39°25' E 002°42'7 7.2
2015-May-14 18:33N 39°19' E 002°47'1313.1
2015-May-14 17:33N 39°14' E 003°03'1414.0
2015-May-14 16:34N 39°14' E 003°21'2013.5
2015-May-14 15:04N 39°19' E 003°46'1414.2
2015-May-14 14:07N 39°25' E 004°01'814.0
2015-May-14 13:33N 39°29' E 004°10'26413.6
2015-May-13 18:05N 41°22' E 009°24'1113.0
2015-May-13 17:13N 41°16' E 009°37'78 2.1
2015-May-12 03:27N 42°13' E 008°25'15 7.9
2015-May-12 01:33N 42°28' E 008°25'2710.9
2015-May-11 23:04N 42°48' E 008°49'713.8
2015-May-11 22:33N 42°53' E 008°56'  

Dump ship's entire track history